Time;durP1;ratioP1;P1;durP2;ratioP2;P2;SDS_P1;SDS_P2;PMS_P1;PMS_P2;Temp;Humidity;BMP_temperature;BMP_pressure;BME280_temperature;BME280_humidity;BME280_pressure;Samples;Min_cycle;Max_cycle;Signal;HPM_P1;HPM_P2
2022/10/24 00:02:18;;;;;;;2.70;1.67;;;17.60;99.90;;;;;;4996097;28;20184;-76
2022/10/24 00:04:43;;;;;;;2.25;1.65;;;17.50;99.90;;;;;;4996390;28;20268;-76
2022/10/24 00:07:09;;;;;;;5.93;1.70;;;17.60;99.90;;;;;;4995938;28;20264;-76
2022/10/24 00:09:36;;;;;;;4.25;2.10;;;17.60;99.90;;;;;;4995670;28;20193;-76
2022/10/24 00:12:04;;;;;;;6.00;1.55;;;17.60;99.90;;;;;;4995992;28;20180;-76
2022/10/24 00:14:29;;;;;;;8.75;1.70;;;17.60;99.90;;;;;;4996166;28;20659;-76
2022/10/24 00:16:55;;;;;;;2.97;1.45;;;17.60;99.90;;;;;;4995647;28;20195;-77
2022/10/24 00:19:21;;;;;;;9.02;2.00;;;17.60;99.90;;;;;;4995819;28;20169;-77
2022/10/24 00:21:46;;;;;;;2.58;1.70;;;17.60;99.90;;;;;;4995593;28;20227;-77
2022/10/24 00:24:12;;;;;;;3.17;1.48;;;17.60;99.90;;;;;;4995584;28;20165;-77
2022/10/24 00:26:37;;;;;;;7.15;1.60;;;17.60;99.90;;;;;;4993978;28;20309;-77
2022/10/24 00:29:03;;;;;;;3.20;1.60;;;17.70;99.90;;;;;;4994592;28;20176;-78
2022/10/24 00:31:30;;;;;;;9.68;1.58;;;17.80;99.90;;;;;;4995588;28;20173;-77
2022/10/24 00:33:56;;;;;;;8.48;1.45;;;17.90;99.90;;;;;;4995620;28;20166;-87
2022/10/24 00:36:23;;;;;;;7.85;1.60;;;17.90;99.90;;;;;;4995559;28;20358;-77
2022/10/24 00:38:50;;;;;;;3.30;1.50;;;17.90;99.90;;;;;;4995732;28;20193;-77
2022/10/24 00:41:21;;;;;;;2.78;1.42;;;17.80;99.90;;;;;;4994121;28;20655;-76
2022/10/24 00:43:46;;;;;;;4.63;1.70;;;17.70;99.90;;;;;;4995197;28;20172;-77
2022/10/24 00:46:13;;;;;;;3.13;1.40;;;17.60;99.90;;;;;;4995026;28;20212;-86
2022/10/24 00:48:44;;;;;;;11.02;1.60;;;17.70;99.90;;;;;;4995365;28;20169;-76
2022/10/24 00:51:23;;;;;;;6.28;1.42;;;17.70;99.90;;;;;;4995415;28;20173;-77
2022/10/24 00:53:51;;;;;;;7.88;1.42;;;17.60;99.90;;;;;;4995350;28;20169;-76
2022/10/24 00:56:20;;;;;;;15.50;1.77;;;17.60;99.90;;;;;;4994630;28;20598;-77
2022/10/24 00:58:47;;;;;;;8.48;1.40;;;17.50;99.90;;;;;;4995311;28;20503;-76
2022/10/24 01:01:12;;;;;;;1.15;1.00;;;17.50;99.90;;;;;;4995641;28;20628;-82
2022/10/24 01:03:38;;;;;;;6.75;1.42;;;17.50;99.90;;;;;;4993881;28;20177;-88
2022/10/24 01:06:52;;;;;;;2.88;1.10;;;17.40;99.90;;;;;;4994833;28;20551;-76
2022/10/24 01:09:49;;;;;;;2.50;1.20;;;17.40;99.90;;;;;;4993204;28;20238;-76
2022/10/24 01:12:39;;;;;;;6.13;1.60;;;17.40;99.90;;;;;;4994667;28;20191;-76
2022/10/24 01:15:45;;;;;;;6.57;2.28;;;17.40;99.90;;;;;;4994855;28;20474;-76
2022/10/24 01:18:26;;;;;;;6.75;1.35;;;17.40;99.90;;;;;;4994792;28;20165;-84
2022/10/24 01:21:01;;;;;;;6.90;1.48;;;17.40;99.90;;;;;;4994710;28;20203;-77
2022/10/24 01:23:48;;;;;;;3.60;1.25;;;17.30;99.90;;;;;;4993537;28;20271;-76
2022/10/24 01:26:33;;;;;;;4.18;1.20;;;17.30;99.90;;;;;;4994478;28;20217;-76
2022/10/24 01:29:22;;;;;;;3.28;1.00;;;17.30;99.90;;;;;;4994687;28;20165;-77
2022/10/24 01:32:01;;;;;;;2.15;0.95;;;17.30;99.90;;;;;;4994510;28;20204;-77
2022/10/24 01:34:45;;;;;;;5.03;1.08;;;17.30;99.90;;;;;;4994471;28;20627;-76
2022/10/24 01:37:34;;;;;;;5.82;1.33;;;17.30;99.90;;;;;;4994170;28;20193;-77
2022/10/24 01:40:07;;;;;;;7.68;1.10;;;17.30;99.90;;;;;;4994354;28;20651;-77
2022/10/24 01:42:36;;;;;;;1.67;1.05;;;17.30;99.90;;;;;;4994217;28;20165;-76
2022/10/24 01:45:04;;;;;;;7.57;1.20;;;17.30;99.90;;;;;;4994406;28;20521;-77
2022/10/24 01:47:38;;;;;;;7.63;1.30;;;17.30;99.90;;;;;;4994112;28;20216;-77
2022/10/24 01:50:08;;;;;;;6.95;1.40;;;17.40;99.90;;;;;;4994126;28;20244;-77
2022/10/24 01:52:38;;;;;;;2.75;1.13;;;17.30;99.90;;;;;;4994196;28;20181;-76
2022/10/24 01:55:05;;;;;;;6.13;0.93;;;17.30;99.90;;;;;;4994028;28;20165;-77
2022/10/24 01:57:33;;;;;;;4.18;1.10;;;17.30;99.90;;;;;;4992534;28;20197;-76
2022/10/24 01:59:59;;;;;;;1.50;0.73;;;17.20;99.90;;;;;;4992924;28;20584;-76
2022/10/24 02:02:37;;;;;;;7.90;1.25;;;17.10;99.90;;;;;;4993840;28;20207;-77
2022/10/24 02:05:18;;;;;;;4.68;1.20;;;17.20;99.90;;;;;;4993894;28;20165;-78
2022/10/24 02:07:49;;;;;;;10.10;1.50;;;17.10;99.90;;;;;;4993492;28;20574;-77
2022/10/24 02:10:46;;;;;;;5.80;1.15;;;17.10;99.90;;;;;;4993761;28;20691;-77
2022/10/24 02:13:49;;;;;;;3.50;1.23;;;17.00;99.90;;;;;;4993590;28;20283;-77
2022/10/24 02:16:19;;;;;;;9.07;1.20;;;17.00;99.90;;;;;;4994071;28;20251;-76
2022/10/24 02:18:48;;;;;;;5.00;1.30;;;17.00;99.90;;;;;;4992276;28;20751;-79
2022/10/24 02:21:28;;;;;;;2.40;1.00;;;17.10;99.90;;;;;;4992507;28;20244;-76
2022/10/24 02:24:36;;;;;;;4.90;1.00;;;17.00;99.90;;;;;;4993558;28;20168;-76
2022/10/24 02:27:10;;;;;;;2.05;1.00;;;17.10;99.90;;;;;;5010965;28;20227;-77
2022/10/24 02:29:43;;;;;;;2.75;1.15;;;17.10;99.90;;;;;;5011124;28;20171;-77
2022/10/24 02:32:12;;;;;;;0.98;0.75;;;17.10;99.90;;;;;;4991871;28;20181;-76
2022/10/24 02:34:39;;;;;;;3.08;0.85;;;17.10;99.90;;;;;;4993664;28;20170;-77
2022/10/24 02:37:07;;;;;;;12.52;1.27;;;17.10;99.90;;;;;;4993261;28;20181;-76
2022/10/24 02:39:35;;;;;;;3.72;1.20;;;17.20;99.90;;;;;;4993446;28;20185;-76
2022/10/24 02:42:02;;;;;;;5.55;1.40;;;17.20;99.90;;;;;;4993253;28;20168;-76
2022/10/24 02:44:28;;;;;;;12.55;1.25;;;17.30;99.90;;;;;;4993293;28;20196;-77
2022/10/24 02:46:58;;;;;;;2.97;1.33;;;17.30;99.90;;;;;;4993277;28;20307;-76
2022/10/24 02:49:24;;;;;;;4.80;1.20;;;17.30;99.90;;;;;;4993303;28;20523;-79
2022/10/24 02:51:50;;;;;;;7.80;1.40;;;17.30;99.90;;;;;;4992825;28;20179;-77
2022/10/24 02:54:16;;;;;;;3.72;1.20;;;17.40;99.90;;;;;;4993268;28;20252;-76
2022/10/24 02:56:53;;;;;;;1.92;1.05;;;17.40;99.90;;;;;;4993209;28;20228;-76
2022/10/24 02:59:19;;;;;;;5.88;1.30;;;17.30;99.90;;;;;;4993114;28;20171;-76
2022/10/24 03:01:44;;;;;;;3.17;1.35;;;17.30;99.90;;;;;;4992872;28;20248;-77
2022/10/24 03:04:10;;;;;;;2.70;1.67;;;17.20;99.90;;;;;;4993108;28;20176;-76
2022/10/24 03:06:36;;;;;;;3.28;0.95;;;17.30;99.90;;;;;;4992849;28;20248;-76
2022/10/24 03:09:02;;;;;;;3.80;1.30;;;17.30;99.90;;;;;;4993174;28;20224;-77
2022/10/24 03:11:28;;;;;;;3.35;1.20;;;17.40;99.90;;;;;;4991609;28;20165;-76
2022/10/24 03:13:53;;;;;;;1.70;0.93;;;17.30;99.90;;;;;;4992742;28;20628;-83
2022/10/24 03:16:19;;;;;;;9.65;1.40;;;17.40;99.90;;;;;;4992673;28;20228;-78
2022/10/24 03:18:44;;;;;;;5.70;1.20;;;17.40;99.90;;;;;;4993172;28;20180;-81
2022/10/24 03:21:10;;;;;;;7.22;1.35;;;17.30;99.90;;;;;;4992649;28;20170;-77
2022/10/24 03:23:35;;;;;;;6.65;1.48;;;17.30;99.90;;;;;;4993414;28;20172;-77
2022/10/24 03:26:01;;;;;;;6.97;1.10;;;17.30;99.90;;;;;;4992660;28;20233;-77
2022/10/24 03:28:27;;;;;;;5.10;1.27;;;17.30;99.90;;;;;;4992836;28;20244;-76
2022/10/24 03:30:52;;;;;;;10.50;1.23;;;17.30;99.90;;;;;;4992657;28;20173;-77
2022/10/24 03:33:19;;;;;;;5.40;1.40;;;17.40;99.90;;;;;;4992613;28;20643;-76
2022/10/24 03:35:44;;;;;;;4.07;0.85;;;17.30;99.90;;;;;;4992248;28;20170;-77
2022/10/24 03:38:10;;;;;;;7.88;1.50;;;17.30;99.90;;;;;;4992831;28;20180;-76
2022/10/24 03:40:36;;;;;;;4.88;1.13;;;17.40;99.90;;;;;;4992903;28;20519;-76
2022/10/24 03:43:03;;;;;;;5.18;1.50;;;17.40;99.90;;;;;;4992896;28;20177;-76
2022/10/24 03:45:28;;;;;;;4.00;1.30;;;17.30;99.90;;;;;;4992479;28;20162;-76
2022/10/24 03:47:54;;;;;;;4.90;1.42;;;17.30;99.90;;;;;;4992580;28;20719;-77
2022/10/24 03:50:20;;;;;;;10.52;1.55;;;17.30;99.90;;;;;;4993195;28;20169;-76
2022/10/24 03:52:45;;;;;;;8.52;1.00;;;17.30;99.90;;;;;;4991446;28;20169;-77
2022/10/24 03:55:12;;;;;;;4.00;1.20;;;17.30;99.90;;;;;;4991380;28;20224;-76
2022/10/24 03:57:37;;;;;;;16.08;1.73;;;17.30;99.90;;;;;;4993787;28;20204;-76
2022/10/24 04:00:04;;;;;;;6.43;1.15;;;17.40;99.90;;;;;;4992705;28;20636;-76
2022/10/24 04:02:30;;;;;;;5.60;1.65;;;17.40;99.90;;;;;;4992991;28;20170;-76
2022/10/24 04:04:56;;;;;;;4.97;1.17;;;17.50;99.90;;;;;;4993661;28;20172;-77
2022/10/24 04:07:21;;;;;;;2.85;1.15;;;17.50;99.90;;;;;;4995925;28;20252;-77
2022/10/24 04:09:47;;;;;;;6.43;1.42;;;17.40;99.90;;;;;;4995903;28;20538;-76
2022/10/24 04:12:13;;;;;;;8.63;1.27;;;17.40;99.90;;;;;;4996292;28;20673;-76
2022/10/24 04:14:38;;;;;;;6.72;1.20;;;17.40;99.90;;;;;;4994458;28;20189;-76
2022/10/24 04:17:04;;;;;;;8.02;1.73;;;17.40;99.90;;;;;;4996238;28;20648;-76
2022/10/24 04:19:29;;;;;;;7.47;2.30;;;17.50;99.90;;;;;;4996554;28;20161;-77
2022/10/24 04:21:55;;;;;;;4.43;1.10;;;17.50;99.90;;;;;;4995888;28;20196;-76
2022/10/24 04:24:21;;;;;;;3.13;1.25;;;17.40;99.90;;;;;;5001600;28;20169;-77
2022/10/24 04:26:46;;;;;;;11.88;1.65;;;17.20;99.90;;;;;;5011250;28;20212;-78
2022/10/24 04:29:12;;;;;;;4.55;1.20;;;17.20;99.90;;;;;;5011618;28;20185;-75
2022/10/24 04:31:37;;;;;;;7.70;1.33;;;17.20;99.90;;;;;;5010898;28;20196;-79
2022/10/24 04:34:05;;;;;;;4.78;1.13;;;17.20;99.90;;;;;;5009573;28;20170;-75
2022/10/24 04:36:31;;;;;;;8.60;1.85;;;17.20;99.90;;;;;;5010708;28;20195;-76
2022/10/24 04:38:56;;;;;;;11.07;1.85;;;17.20;99.90;;;;;;5009935;28;20172;-76
2022/10/24 04:41:22;;;;;;;13.30;1.58;;;17.20;99.90;;;;;;4994135;28;20540;-76
2022/10/24 04:43:48;;;;;;;5.07;1.30;;;17.30;99.90;;;;;;4995105;28;20227;-76
2022/10/24 04:46:13;;;;;;;5.82;1.30;;;17.20;99.90;;;;;;4995158;28;20215;-77
2022/10/24 04:48:39;;;;;;;5.40;1.00;;;17.10;99.90;;;;;;4995256;28;20211;-77
2022/10/24 04:51:04;;;;;;;2.58;1.35;;;17.20;99.90;;;;;;4994863;28;20161;-77
2022/10/24 04:53:30;;;;;;;8.80;1.52;;;17.00;99.90;;;;;;4994883;28;20169;-77
2022/10/24 04:55:56;;;;;;;8.38;1.30;;;17.10;99.90;;;;;;5008896;28;20209;-76
2022/10/24 04:58:21;;;;;;;14.45;1.52;;;17.10;99.90;;;;;;5013182;28;20201;-77
2022/10/24 05:00:49;;;;;;;18.58;1.67;;;17.10;99.90;;;;;;5012048;28;20530;-77
2022/10/24 05:03:18;;;;;;;7.82;1.13;;;17.10;99.90;;;;;;5013466;28;20180;-76
2022/10/24 05:05:45;;;;;;;5.22;1.00;;;17.20;99.90;;;;;;5012988;28;20173;-78
2022/10/24 05:08:11;;;;;;;10.30;1.40;;;17.10;99.90;;;;;;5012671;28;20177;-76
2022/10/24 05:10:36;;;;;;;11.02;2.33;;;17.20;99.90;;;;;;5001445;28;20171;-76
2022/10/24 05:13:02;;;;;;;13.15;1.63;;;17.20;99.90;;;;;;4994670;28;20261;-77
2022/10/24 05:15:28;;;;;;;12.48;1.52;;;17.20;99.90;;;;;;4993947;28;20263;-77
2022/10/24 05:17:55;;;;;;;5.30;1.55;;;17.20;99.90;;;;;;4994603;28;20174;-76
2022/10/24 05:20:20;;;;;;;7.93;1.25;;;17.30;99.90;;;;;;4994040;28;20167;-80
2022/10/24 05:22:46;;;;;;;14.55;1.67;;;17.30;99.90;;;;;;4994274;28;20177;-77
2022/10/24 05:25:12;;;;;;;10.88;1.38;;;17.20;99.90;;;;;;4998004;28;20181;-79
2022/10/24 05:27:37;;;;;;;10.65;1.75;;;17.20;99.90;;;;;;5007374;28;20616;-77
2022/10/24 05:30:04;;;;;;;5.78;1.48;;;17.20;99.90;;;;;;5014389;28;20164;-77
2022/10/24 05:32:30;;;;;;;7.22;1.70;;;17.30;99.90;;;;;;5014876;28;20184;-80
2022/10/24 05:34:56;;;;;;;9.20;1.98;;;17.30;99.90;;;;;;5014468;28;20260;-80
2022/10/24 05:37:21;;;;;;;13.63;1.70;;;17.20;99.90;;;;;;5014151;28;20633;-77
2022/10/24 05:39:47;;;;;;;9.75;2.22;;;17.10;99.90;;;;;;5014123;28;20180;-77
2022/10/24 05:42:13;;;;;;;14.80;2.90;;;16.90;99.90;;;;;;5015229;28;20161;-78
2022/10/24 05:44:38;;;;;;;11.25;1.83;;;17.00;99.90;;;;;;5014922;28;20160;-77
2022/10/24 05:47:04;;;;;;;11.18;1.48;;;16.90;99.90;;;;;;5014231;28;20236;-80
2022/10/24 05:49:30;;;;;;;9.60;1.80;;;17.00;99.90;;;;;;5015067;28;20173;-78
2022/10/24 05:51:56;;;;;;;15.77;2.13;;;17.00;99.90;;;;;;5015992;28;20181;-79
2022/10/24 05:54:21;;;;;;;16.30;2.03;;;17.20;99.90;;;;;;5014537;28;20262;-82
2022/10/24 05:56:47;;;;;;;12.05;2.03;;;17.30;99.90;;;;;;5014828;28;20699;-78
2022/10/24 05:59:12;;;;;;;8.35;1.45;;;17.30;99.90;;;;;;5013406;28;20175;-78
2022/10/24 06:01:39;;;;;;;7.60;1.45;;;17.30;99.90;;;;;;5018128;28;20854;-78
2022/10/24 06:04:04;;;;;;;12.38;1.83;;;17.30;99.90;;;;;;5014986;28;20239;-78
2022/10/24 06:06:30;;;;;;;5.38;1.77;;;17.20;99.90;;;;;;5016686;28;20207;-77
2022/10/24 06:08:55;;;;;;;10.43;2.05;;;17.20;99.90;;;;;;5014009;28;20164;-78
2022/10/24 06:11:21;;;;;;;5.90;1.63;;;17.10;99.90;;;;;;5014235;28;20177;-78
2022/10/24 06:13:46;;;;;;;13.60;1.90;;;17.10;99.90;;;;;;5013849;28;20666;-78
2022/10/24 06:16:12;;;;;;;7.78;2.10;;;17.10;99.90;;;;;;5012881;28;20189;-78
2022/10/24 06:18:38;;;;;;;10.82;1.98;;;17.10;99.90;;;;;;5012982;28;20168;-77
2022/10/24 06:21:07;;;;;;;9.88;1.77;;;17.10;99.90;;;;;;5012192;28;20168;-77
2022/10/24 06:23:34;;;;;;;6.50;1.63;;;17.00;99.90;;;;;;5013780;28;20165;-78
2022/10/24 06:26:00;;;;;;;13.40;2.58;;;16.80;99.90;;;;;;5013290;28;20216;-77
2022/10/24 06:28:26;;;;;;;7.50;1.40;;;16.50;99.90;;;;;;5012310;28;20226;-78
2022/10/24 06:30:53;;;;;;;6.10;1.17;;;16.30;99.90;;;;;;5013344;28;20172;-78
2022/10/24 06:33:19;;;;;;;8.05;1.30;;;16.20;99.90;;;;;;5013030;28;20191;-89
2022/10/24 06:35:45;;;;;;;4.85;1.27;;;16.10;99.90;;;;;;5013653;28;20640;-80
2022/10/24 06:38:11;;;;;;;6.28;1.30;;;15.90;99.90;;;;;;5013323;28;20173;-78
2022/10/24 06:40:39;;;;;;;7.47;1.75;;;15.80;99.90;;;;;;5012782;28;20179;-79
2022/10/24 06:43:05;;;;;;;3.05;0.90;;;15.60;99.90;;;;;;5013088;28;20230;-79
2022/10/24 06:45:31;;;;;;;9.77;1.35;;;15.70;99.90;;;;;;5012405;28;20562;-85
2022/10/24 06:47:58;;;;;;;7.97;2.40;;;15.50;99.90;;;;;;5011861;28;20342;-86
2022/10/24 06:50:24;;;;;;;8.60;1.30;;;15.40;99.90;;;;;;5012801;28;20226;-77
2022/10/24 06:52:49;;;;;;;8.45;2.00;;;15.40;99.90;;;;;;5011300;28;20374;-77
2022/10/24 06:55:15;;;;;;;10.25;1.70;;;15.40;99.90;;;;;;5027713;28;20171;-76
2022/10/24 06:57:41;;;;;;;12.30;1.50;;;15.60;99.90;;;;;;5012225;28;20195;-78
2022/10/24 07:00:07;;;;;;;1.65;0.85;;;15.60;99.90;;;;;;5012357;28;20195;-77
2022/10/24 07:02:34;;;;;;;12.75;1.50;;;15.50;99.90;;;;;;5012287;28;20171;-76
2022/10/24 07:04:59;;;;;;;10.55;1.77;;;15.40;99.90;;;;;;5012312;28;20219;-78
2022/10/24 07:07:25;;;;;;;12.88;1.42;;;15.40;99.90;;;;;;5012598;28;20295;-79
2022/10/24 07:09:56;;;;;;;17.50;2.30;;;15.40;99.90;;;;;;5011652;28;20171;-83
2022/10/24 07:12:23;;;;;;;12.20;2.38;;;15.40;99.90;;;;;;5011482;28;20196;-87
2022/10/24 07:14:48;;;;;;;10.05;1.75;;;15.40;99.90;;;;;;5011558;28;20176;-79
2022/10/24 07:17:15;;;;;;;8.55;2.05;;;15.50;99.90;;;;;;5012693;28;20554;-78
2022/10/24 07:19:41;;;;;;;14.55;1.83;;;15.60;99.90;;;;;;5012334;28;20207;-77
2022/10/24 07:22:07;;;;;;;13.07;1.73;;;15.60;99.90;;;;;;5012518;28;20173;-89
2022/10/24 07:24:32;;;;;;;9.15;1.70;;;15.60;99.90;;;;;;5012605;28;20248;-78
2022/10/24 07:26:58;;;;;;;15.95;2.17;;;15.80;99.90;;;;;;5012250;28;20208;-88
2022/10/24 07:29:24;;;;;;;22.90;2.25;;;15.90;99.90;;;;;;5012667;28;20175;-78
2022/10/24 07:31:49;;;;;;;9.85;1.88;;;16.10;99.90;;;;;;5027264;28;20222;-79
2022/10/24 07:34:15;;;;;;;14.65;1.77;;;16.10;99.90;;;;;;5012839;28;20172;-81
2022/10/24 07:36:40;;;;;;;8.77;1.75;;;16.30;99.90;;;;;;5005976;28;20561;-78
2022/10/24 07:39:06;;;;;;;17.00;2.17;;;16.30;99.90;;;;;;4994116;28;20169;-78
2022/10/24 07:41:32;;;;;;;17.73;2.35;;;16.40;99.90;;;;;;4997158;28;20640;-79
2022/10/24 07:44:01;;;;;;;13.45;1.65;;;16.40;99.90;;;;;;4997377;28;20174;-78
2022/10/24 07:46:27;;;;;;;11.30;1.90;;;16.40;99.90;;;;;;4996104;28;20212;-78
2022/10/24 07:48:53;;;;;;;16.27;1.88;;;16.50;99.90;;;;;;4998560;28;20185;-78
2022/10/24 07:51:20;;;;;;;10.50;2.08;;;16.60;99.90;;;;;;4999049;28;20203;-79
2022/10/24 07:53:47;;;;;;;21.58;2.58;;;16.70;99.90;;;;;;4994411;28;20177;-81
2022/10/24 07:56:15;;;;;;;19.02;2.53;;;16.70;99.90;;;;;;4994503;28;20602;-83
2022/10/24 07:58:42;;;;;;;12.05;1.75;;;16.80;99.90;;;;;;5000199;28;20205;-82
2022/10/24 08:01:10;;;;;;;9.07;1.55;;;16.70;99.90;;;;;;4995148;28;20631;-79
2022/10/24 08:03:36;;;;;;;18.50;1.75;;;16.80;99.90;;;;;;4995926;28;20240;-84
2022/10/24 08:06:06;;;;;;;12.20;1.65;;;16.90;99.90;;;;;;4995015;28;20602;-83
2022/10/24 08:08:32;;;;;;;24.23;2.00;;;16.90;99.90;;;;;;4994900;28;20539;-78
2022/10/24 08:10:57;;;;;;;7.30;1.92;;;17.00;99.90;;;;;;5002660;28;20181;-78
2022/10/24 08:13:23;;;;;;;13.50;2.03;;;16.90;99.90;;;;;;4994608;28;20172;-77
2022/10/24 08:15:49;;;;;;;13.55;2.10;;;17.00;99.90;;;;;;4995057;28;20205;-80
2022/10/24 08:18:14;;;;;;;14.23;2.53;;;17.20;99.90;;;;;;4995006;28;20169;-78
2022/10/24 08:20:40;;;;;;;8.55;1.52;;;17.30;99.90;;;;;;4994206;28;20635;-77
2022/10/24 08:23:06;;;;;;;13.13;2.10;;;17.30;99.90;;;;;;4994593;28;20269;-80
2022/10/24 08:25:32;;;;;;;9.52;2.90;;;17.30;99.90;;;;;;4995321;28;20177;-81
2022/10/24 08:27:57;;;;;;;11.90;2.40;;;17.30;99.90;;;;;;4994314;28;20207;-77
2022/10/24 08:30:23;;;;;;;17.80;2.53;;;17.40;99.90;;;;;;4994036;28;20593;-79
2022/10/24 08:32:49;;;;;;;10.95;2.45;;;17.50;99.90;;;;;;4994580;28;20191;-79
2022/10/24 08:35:16;;;;;;;9.50;1.88;;;17.50;99.90;;;;;;4996710;28;20560;-83
2022/10/24 08:37:42;;;;;;;15.40;2.33;;;17.50;99.90;;;;;;4993681;28;20551;-85
2022/10/24 08:40:14;;;;;;;4.65;1.70;;;17.50;99.90;;;;;;4993381;28;20169;-82
2022/10/24 08:42:40;;;;;;;12.82;2.53;;;17.50;99.90;;;;;;4994846;28;20173;-81
2022/10/24 08:45:17;;;;;;;18.90;2.67;;;17.50;99.90;;;;;;4996043;28;20169;-83
2022/10/24 08:48:12;;;;;;;12.68;2.17;;;17.60;99.90;;;;;;5000694;28;20752;-81
2022/10/24 08:50:41;;;;;;;9.07;2.08;;;17.60;99.90;;;;;;5004989;28;20643;-86
2022/10/24 08:53:21;;;;;;;9.85;1.95;;;17.70;99.90;;;;;;4995421;28;20196;-84
2022/10/24 08:55:52;;;;;;;14.80;2.20;;;17.70;99.90;;;;;;5008892;28;20200;-84
2022/10/24 08:58:30;;;;;;;18.10;1.70;;;17.70;99.90;;;;;;5017377;28;20165;-83
2022/10/24 09:00:59;;;;;;;18.83;2.13;;;17.70;99.90;;;;;;5000828;28;20173;-83
2022/10/24 09:03:47;;;;;;;17.85;2.15;;;17.80;99.90;;;;;;5011642;28;20168;-83
2022/10/24 09:06:21;;;;;;;12.70;2.20;;;17.70;99.90;;;;;;5030520;28;20215;-84
2022/10/24 09:09:02;;;;;;;13.60;1.73;;;17.60;99.90;;;;;;4998920;28;20188;-83
2022/10/24 09:11:35;;;;;;;9.63;2.13;;;17.80;99.90;;;;;;4992713;28;20176;-83
2022/10/24 09:14:06;;;;;;;11.80;1.30;;;18.00;99.90;;;;;;4994383;28;20201;-86
2022/10/24 09:16:31;;;;;;;12.00;1.60;;;18.30;99.90;;;;;;4992683;28;20209;-83
2022/10/24 09:18:58;;;;;;;10.55;1.77;;;18.50;99.90;;;;;;4994992;28;20219;-91
2022/10/24 09:21:24;;;;;;;12.68;2.35;;;18.50;99.90;;;;;;5000175;28;20259;-87
2022/10/24 09:23:51;;;;;;;11.50;3.13;;;18.40;99.90;;;;;;5012710;28;20203;-85
2022/10/24 09:26:26;;;;;;;12.70;1.70;;;18.30;99.90;;;;;;5028953;28;20236;-84
2022/10/24 09:28:53;;;;;;;25.85;2.25;;;18.50;99.90;;;;;;5012940;28;20176;-86
2022/10/24 09:31:23;;;;;;;7.65;1.88;;;18.60;99.90;;;;;;5002719;28;20189;-87
2022/10/24 09:33:51;;;;;;;16.90;2.28;;;18.50;99.90;;;;;;4992426;28;20161;-83
2022/10/24 09:36:20;;;;;;;12.95;2.15;;;18.30;99.90;;;;;;4992292;28;20185;-83
2022/10/24 09:38:47;;;;;;;6.82;1.65;;;18.30;99.90;;;;;;4991822;28;20185;-83
2022/10/24 09:41:24;;;;;;;19.20;2.40;;;18.40;99.90;;;;;;4998379;28;20173;-83
2022/10/24 09:43:54;;;;;;;8.48;1.42;;;18.30;99.90;;;;;;5011859;28;20183;-83
2022/10/24 09:46:34;;;;;;;15.02;2.42;;;18.20;99.90;;;;;;5013090;28;20215;-84
2022/10/24 09:49:19;;;;;;;10.50;2.17;;;18.40;99.90;;;;;;5007394;28;20215;-84
2022/10/24 09:52:18;;;;;;;6.35;1.70;;;18.40;99.90;;;;;;4991903;28;20657;-85
2022/10/24 09:54:44;;;;;;;12.25;2.10;;;18.50;99.90;;;;;;5007645;28;20898;-87
2022/10/24 09:57:09;;;;;;;11.68;2.15;;;18.70;99.90;;;;;;5027933;28;20180;-86
2022/10/24 09:59:45;;;;;;;8.55;2.13;;;18.80;99.90;;;;;;5013744;28;20473;-83
2022/10/24 10:02:19;;;;;;;11.15;1.90;;;19.00;99.90;;;;;;5025362;28;20172;-81
2022/10/24 10:04:47;;;;;;;5.15;1.95;;;18.70;99.90;;;;;;5036770;28;20176;-82
2022/10/24 10:07:18;;;;;;;9.95;1.83;;;18.70;99.90;;;;;;5017524;28;20303;-82
2022/10/24 10:09:51;;;;;;;9.38;1.73;;;18.70;99.90;;;;;;5014205;28;20542;-82
2022/10/24 10:12:33;;;;;;;8.68;1.80;;;18.80;99.90;;;;;;5014668;28;20169;-88
2022/10/24 10:15:02;;;;;;;8.30;1.60;;;18.80;99.90;;;;;;5028532;28;20192;-88
2022/10/24 10:17:30;;;;;;;10.18;2.63;;;18.70;99.90;;;;;;5011263;28;20184;-83
2022/10/24 10:19:57;;;;;;;10.20;2.70;;;18.70;99.90;;;;;;5011506;28;20750;-80
2022/10/24 10:22:30;;;;;;;14.90;2.10;;;18.70;99.90;;;;;;5013123;28;20165;-83
2022/10/24 10:24:57;;;;;;;11.13;1.85;;;18.60;99.90;;;;;;5012272;28;20168;-91
2022/10/24 10:27:38;;;;;;;12.23;2.53;;;18.40;99.90;;;;;;5012883;28;20331;-84
2022/10/24 10:30:15;;;;;;;11.23;1.60;;;18.30;99.90;;;;;;5014473;28;20180;-90
2022/10/24 10:32:47;;;;;;;18.40;1.80;;;18.40;99.90;;;;;;5013688;28;20186;-88
2022/10/24 10:35:21;;;;;;;13.07;2.10;;;18.40;99.90;;;;;;5012314;28;20183;-83
2022/10/24 10:38:00;;;;;;;7.85;1.55;;;18.50;99.90;;;;;;5011934;28;20189;-81
2022/10/24 10:40:30;;;;;;;8.23;1.85;;;18.70;99.90;;;;;;5010909;28;20338;-79
2022/10/24 10:43:20;;;;;;;12.38;1.58;;;18.80;99.90;;;;;;5011122;28;20168;-78
2022/10/24 10:45:47;;;;;;;6.85;1.80;;;19.00;99.90;;;;;;5011707;28;20179;-79
2022/10/24 10:48:31;;;;;;;8.32;1.70;;;18.90;99.90;;;;;;5012236;28;20182;-82
2022/10/24 10:51:06;;;;;;;11.57;2.53;;;19.00;99.90;;;;;;4997023;28;20539;-83
2022/10/24 10:53:53;;;;;;;16.45;1.80;;;19.10;99.90;;;;;;4992878;28;20657;-81
2022/10/24 10:56:40;;;;;;;9.98;1.73;;;19.20;99.90;;;;;;5003880;28;20211;-86
2022/10/24 10:59:36;;;;;;;6.15;1.77;;;19.20;99.90;;;;;;5011914;28;20172;-79
2022/10/24 11:02:20;;;;;;;7.68;1.45;;;19.50;99.90;;;;;;5012511;28;20175;-80
2022/10/24 11:04:56;;;;;;;2.50;0.93;;;19.60;99.90;;;;;;5011149;28;20171;-80
2022/10/24 11:07:43;;;;;;;8.20;3.20;;;19.50;99.90;;;;;;5010738;28;20239;-81
2022/10/24 11:10:13;;;;;;;8.88;1.50;;;19.40;99.90;;;;;;5010980;28;20176;-80
2022/10/24 11:12:42;;;;;;;12.80;1.95;;;19.50;99.90;;;;;;5012416;28;20262;-80
2022/10/24 11:15:20;;;;;;;3.42;1.95;;;19.40;99.90;;;;;;5015035;28;20211;-80
2022/10/24 11:17:57;;;;;;;10.45;1.45;;;19.30;99.90;;;;;;5016192;28;20184;-92
2022/10/24 11:20:41;;;;;;;11.32;2.03;;;19.00;99.90;;;;;;5016473;28;20176;-80
2022/10/24 11:23:13;;;;;;;8.38;1.75;;;19.00;99.90;;;;;;5015220;28;20171;-79
2022/10/24 11:25:55;;;;;;;11.30;1.77;;;19.00;99.90;;;;;;5016094;28;20648;-80
2022/10/24 11:28:28;;;;;;;8.18;1.63;;;18.80;99.90;;;;;;5015755;28;20289;-80
2022/10/24 11:31:10;;;;;;;5.10;1.20;;;18.90;99.90;;;;;;5016345;28;20173;-81
2022/10/24 11:33:45;;;;;;;10.57;1.73;;;19.00;99.90;;;;;;5014925;28;20173;-80
2022/10/24 11:36:37;;;;;;;18.65;2.03;;;18.90;99.90;;;;;;5014393;28;20226;-80
2022/10/24 11:39:16;;;;;;;6.03;1.60;;;18.90;99.90;;;;;;5014632;28;20173;-80
2022/10/24 11:42:05;;;;;;;7.85;1.83;;;18.80;99.90;;;;;;5015729;28;20164;-79
2022/10/24 11:44:51;;;;;;;6.03;1.52;;;18.60;99.90;;;;;;5015668;28;20635;-79
2022/10/24 11:47:22;;;;;;;6.43;1.65;;;18.40;99.90;;;;;;5015799;28;20677;-79
2022/10/24 11:50:05;;;;;;;8.90;1.65;;;18.10;99.90;;;;;;5014597;28;20180;-80
2022/10/24 11:52:37;;;;;;;6.38;1.92;;;18.10;99.90;;;;;;5014712;28;20176;-79
2022/10/24 11:55:23;;;;;;;9.25;2.00;;;18.10;99.90;;;;;;5014452;28;20200;-80
2022/10/24 11:57:56;;;;;;;10.20;1.60;;;18.10;99.90;;;;;;5014263;28;20745;-80
2022/10/24 12:00:30;;;;;;;4.13;1.05;;;17.80;99.90;;;;;;5014449;28;20173;-80
2022/10/24 12:02:59;;;;;;;5.32;1.42;;;17.80;99.90;;;;;;5014152;28;20240;-79
2022/10/24 12:05:40;;;;;;;8.60;1.48;;;17.70;99.90;;;;;;5015574;28;20586;-79
2022/10/24 12:08:15;;;;;;;6.60;1.58;;;17.80;99.90;;;;;;5015347;28;20211;-80
2022/10/24 12:11:18;;;;;;;5.18;1.50;;;17.60;99.90;;;;;;5014227;28;20539;-79
2022/10/24 12:14:03;;;;;;;7.95;1.63;;;17.70;99.90;;;;;;5015440;28;20524;-90
2022/10/24 12:16:57;;;;;;;4.05;1.55;;;17.60;99.90;;;;;;5014174;28;20577;-80
2022/10/24 12:19:24;;;;;;;6.35;1.35;;;17.70;99.90;;;;;;5014299;28;20627;-80
2022/10/24 12:21:53;;;;;;;10.95;1.20;;;17.80;99.90;;;;;;5015730;28;20169;-82
2022/10/24 12:24:31;;;;;;;4.63;1.63;;;17.80;99.90;;;;;;5014139;28;20173;-85
2022/10/24 12:27:23;;;;;;;2.97;1.17;;;17.90;99.90;;;;;;5013267;28;20211;-80
2022/10/24 12:30:23;;;;;;;7.00;1.05;;;17.80;99.90;;;;;;5014902;28;20173;-80
2022/10/24 12:32:53;;;;;;;3.45;1.13;;;17.70;99.90;;;;;;5003456;28;20191;-79
2022/10/24 12:35:45;;;;;;;5.50;1.20;;;17.60;99.90;;;;;;5013880;28;20571;-79
2022/10/24 12:38:37;;;;;;;7.50;1.63;;;17.70;99.90;;;;;;5015084;28;20215;-79
2022/10/24 12:41:08;;;;;;;4.57;1.17;;;17.60;99.90;;;;;;5014866;28;20242;-79
2022/10/24 12:43:37;;;;;;;7.50;1.02;;;17.80;99.90;;;;;;5013795;28;20179;-79
2022/10/24 12:46:15;;;;;;;6.18;0.95;;;17.70;99.90;;;;;;5013211;28;20759;-80
2022/10/24 12:48:43;;;;;;;4.45;1.05;;;17.60;99.90;;;;;;5014776;28;20173;-80
2022/10/24 12:51:32;;;;;;;10.82;1.67;;;17.70;99.90;;;;;;5012998;28;20513;-80
2022/10/24 12:54:13;;;;;;;5.35;1.42;;;17.60;99.90;;;;;;5015959;28;20176;-79
2022/10/24 12:56:51;;;;;;;6.00;1.10;;;17.60;99.90;;;;;;5016279;28;20708;-85
2022/10/24 12:59:40;;;;;;;8.38;1.63;;;17.40;99.90;;;;;;5014641;28;20179;-80
2022/10/24 13:02:14;;;;;;;6.90;1.27;;;17.30;99.90;;;;;;5013045;28;20230;-80
2022/10/24 13:05:17;;;;;;;5.80;1.40;;;17.40;99.90;;;;;;5015849;28;20180;-80